Guenther Schulte — VRGK8 — position and weather

sailwx.info

Track history (hours):
 
Tides and Currents Weather Stations Pressure Air Temp Water Temp Dewpoint Dewpoint Depression Visibility Wind Speed Wind Dir Waves Ship Positions

Guenther Schulte

Last reported at 2015-Jan-27 18:33 UTC. Time now 2015-Jan-27 18:59 UTC.
Position N 37°43' W 122°20'.

Length 231 m; draft 9.2 m.

Type: Ship (hazmat cat C). MMSI: 477728800.

Date/timePositionNaut miles runAvg speedWind from/ knotsBaromVisibWave heightAir tempDewpointWater temp
2015-Jan-27 18:33N 37°43' W 122°20'0 0.0
2015-Jan-27 17:33N 37°43' W 122°20'0 0.0
2015-Jan-27 16:33N 37°43' W 122°20'0 0.0
2015-Jan-27 15:33N 37°43' W 122°20'0 0.1
2015-Jan-27 14:33N 37°43' W 122°20'0 0.2
2015-Jan-27 13:33N 37°43' W 122°20'0 0.1
2015-Jan-27 12:33N 37°43' W 122°20'0 0.0
2015-Jan-27 11:33N 37°43' W 122°20'0 0.0
2015-Jan-27 10:33N 37°43' W 122°20'0 0.0
2015-Jan-27 09:33N 37°43' W 122°20'0 0.0
2015-Jan-27 08:33N 37°43' W 122°20'0 0.2
2015-Jan-27 07:33N 37°43' W 122°20'0 0.1
2015-Jan-27 06:33N 37°43' W 122°20'0 0.0
2015-Jan-27 05:33N 37°43' W 122°20'0 0.0
2015-Jan-27 04:33N 37°43' W 122°20'0 0.0
2015-Jan-27 03:33N 37°43' W 122°20'0 0.1
2015-Jan-27 02:33N 37°43' W 122°20'0 0.2
2015-Jan-27 01:30N 37°43' W 122°20'0 0.0
2015-Jan-27 00:33N 37°43' W 122°20'0 0.0
2015-Jan-26 23:33N 37°43' W 122°20'0 0.0
2015-Jan-26 22:33N 37°43' W 122°20'0 0.0
2015-Jan-26 21:33N 37°43' W 122°20'0 0.0
2015-Jan-26 20:33N 37°43' W 122°20'0 0.2
2015-Jan-26 19:33N 37°43' W 122°20'0 0.1
2015-Jan-26 18:30N 37°43' W 122°20'0 0.0
2015-Jan-26 17:33N 37°43' W 122°20'0 0.0
2015-Jan-26 16:33N 37°43' W 122°20'0 0.0
2015-Jan-26 15:34N 37°43' W 122°20'8 8.0
2015-Jan-26 14:33N 37°49' W 122°27'1313.4
2015-Jan-26 13:33N 37°44' W 122°42'1111.2
2015-Jan-26 12:33N 37°37' W 122°54'1312.9
2015-Jan-26 11:33N 37°29' W 123°07'1111.3
2015-Jan-26 10:33N 37°23' W 123°19'1111.2
2015-Jan-26 09:33N 37°15' W 123°28'1111.2
2015-Jan-26 08:33N 37°06' W 123°37'1110.9
2015-Jan-26 07:33N 36°59' W 123°47'1111.0
2015-Jan-26 06:33N 36°50' W 123°56'1111.0
2015-Jan-26 05:31N 36°42' W 124°06'1310.9
2015-Jan-26 04:17N 36°32' W 124°17'5411.4
2015-Jan-25 23:33N 35°53' W 125°03'1212.2
2015-Jan-25 22:33N 35°43' W 125°13'1212.1
2015-Jan-25 21:33N 35°35' W 125°23'1312.3
2015-Jan-25 20:31N 35°25' W 125°33'5610.4
2015-Jan-25 15:12N 34°46' W 126°22'710.9
2015-Jan-25 14:33N 34°39' W 126°21'1311.8
2015-Jan-25 13:28N 34°27' W 126°24'1111.6
2015-Jan-25 12:31N 34°16' W 126°25'2311.7
2015-Jan-25 10:33N 33°53' W 126°28'1712.1
2015-Jan-25 09:11N 33°36' W 126°31'812.2
2015-Jan-25 08:33N 33°29' W 126°32'26 4.3
2015-Jan-25 02:33N 33°03' W 126°35'9 0.8
2015-Jan-24 15:22N 33°09' W 126°26'1 1.0
2015-Jan-24 14:33N 33°09' W 126°26'1 1.1
2015-Jan-24 13:25N 33°11' W 126°25'1 1.1
2015-Jan-24 12:28N 33°12' W 126°25'1 1.1
2015-Jan-24 11:33N 33°13' W 126°24'1 1.0
2015-Jan-24 10:33N 33°13' W 126°24'1 0.9
2015-Jan-24 09:33N 33°14' W 126°24'1 0.9
2015-Jan-24 08:33N 33°15' W 126°23'1 0.8
2015-Jan-24 07:33N 33°16' W 126°22'1 0.8
2015-Jan-24 06:33N 33°16' W 126°22'1 0.7
2015-Jan-24 05:33N 33°17' W 126°22'0 0.5
2015-Jan-24 04:33N 33°17' W 126°21'0 0.5
2015-Jan-24 03:33N 33°18' W 126°21'1 0.6
2015-Jan-24 02:33N 33°18' W 126°21'1 0.7
2015-Jan-24 01:33N 33°19' W 126°20'1 0.7
2015-Jan-24 00:33N 33°19' W 126°20'1 1.0
2015-Jan-23 23:33N 33°20' W 126°19'1 1.1
2015-Jan-23 22:33N 33°21' W 126°18'1 1.0
2015-Jan-23 21:33N 33°22' W 126°18'1 0.8
2015-Jan-23 20:33N 33°23' W 126°17'1 0.9
2015-Jan-23 19:33N 33°23' W 126°17'2 0.9
2015-Jan-23 17:24N 33°25' W 126°15'3 1.0
2015-Jan-23 14:33N 33°27' W 126°13'1 1.1
2015-Jan-23 13:19N 33°29' W 126°13'1 1.1
2015-Jan-23 12:33N 33°29' W 126°13'1 0.9
2015-Jan-23 11:33N 33°30' W 126°13'1 0.6
2015-Jan-23 10:33N 33°31' W 126°14'0 0.4
2015-Jan-23 09:33N 33°31' W 126°14'0 0.3
2015-Jan-23 08:33N 33°31' W 126°14'0 0.1
2015-Jan-23 07:33N 33°32' W 126°14'0 0.1
2015-Jan-23 06:34N 33°32' W 126°14'0 0.4
2015-Jan-23 05:33N 33°32' W 126°14'1 0.6
2015-Jan-23 04:33N 33°32' W 126°13'1 0.8
2015-Jan-23 03:32N 33°33' W 126°12'1 0.9
2015-Jan-23 02:29N 33°33' W 126°12'1 0.9
2015-Jan-23 01:33N 33°34' W 126°11'1 1.0
2015-Jan-23 00:33N 33°35' W 126°10'1 0.8
2015-Jan-22 23:33N 33°35' W 126°10'1 0.9
2015-Jan-22 22:33N 33°36' W 126°09'1 0.7
2015-Jan-22 21:33N 33°37' W 126°09'1 0.7
2015-Jan-22 20:33N 33°38' W 126°09'1 0.7
2015-Jan-22 19:33N 33°38' W 126°08'1 0.8
2015-Jan-22 18:29N 33°39' W 126°09'1 0.6
2015-Jan-22 17:33N 33°39' W 126°09'1 0.5
2015-Jan-22 15:33N 33°40' W 126°09'0 0.5
2015-Jan-22 14:33N 33°41' W 126°09'1 0.7
2015-Jan-22 13:33N 33°42' W 126°09'1 0.7
2015-Jan-22 12:33N 33°42' W 126°09'1 0.8
2015-Jan-22 11:34N 33°43' W 126°09'1 0.9
2015-Jan-22 10:33N 33°44' W 126°09'1 1.0
2015-Jan-22 09:29N 33°45' W 126°09'1 0.9
2015-Jan-22 08:33N 33°46' W 126°09'1 0.7
2015-Jan-22 07:33N 33°46' W 126°09'1 0.6
2015-Jan-22 06:33N 33°47' W 126°08'1 0.8
2015-Jan-22 05:33N 33°48' W 126°08'1 0.9
2015-Jan-22 04:32N 33°48' W 126°08'1 0.9
2015-Jan-22 03:25N 33°49' W 126°07'1 1.0
2015-Jan-22 02:32N 33°50' W 126°07'1 1.1
2015-Jan-22 01:33N 33°51' W 126°06'1 1.2
2015-Jan-22 00:34N 33°53' W 126°06'1 1.2
2015-Jan-21 23:34N 33°54' W 126°06'1 1.1
2015-Jan-21 22:50N 33°55' W 126°06'0 0.9
2015-Jan-21 22:46N 33°55' W 126°06'0 1.1
2015-Jan-21 22:34N 33°55' W 126°05'1 1.1
2015-Jan-21 21:33N 33°56' W 126°05'3 1.4
2015-Jan-21 19:33N 33°58' W 126°04'6 1.3
2015-Jan-21 15:24N 34°03' W 126°01'1 1.3
2015-Jan-21 14:32N 34°05' W 126°00'2 1.3
2015-Jan-21 13:24N 34°06' W 125°60'1 1.4
2015-Jan-21 12:34N 34°07' W 125°60'2 1.6
2015-Jan-21 11:33N 34°09' W 125°60'2 1.7
2015-Jan-21 10:34N 34°10' W 125°59'2 1.6
2015-Jan-21 09:34N 34°12' W 125°59'2 1.6
2015-Jan-21 08:34N 34°13' W 125°58'13 1.6
2015-Jan-21 00:30N 34°26' W 125°56'2 1.7
2015-Jan-20 23:33N 34°27' W 125°56'2 1.6
2015-Jan-20 22:29N 34°29' W 125°56'18 4.3
2015-Jan-20 18:11N 34°11' W 125°50'20 3.4
2015-Jan-20 12:10N 33°52' W 125°42'1 1.3
2015-Jan-20 11:34N 33°53' W 125°42'1 1.3
2015-Jan-20 10:31N 33°54' W 125°43'2 1.4
2015-Jan-20 09:14N 33°56' W 125°43'1 1.3
2015-Jan-20 08:15N 33°57' W 125°43'1 1.1
2015-Jan-20 07:33N 33°58' W 125°43'1 1.0
2015-Jan-20 06:33N 33°59' W 125°43'1 0.9
2015-Jan-20 05:15N 34°00' W 125°43'1 1.1
2015-Jan-20 04:15N 34°01' W 125°43'1 1.1
2015-Jan-20 03:33N 34°02' W 125°43'1 1.2
2015-Jan-20 02:34N 34°03' W 125°43'1 1.2
2015-Jan-20 01:33N 34°04' W 125°43'1 1.3
2015-Jan-20 00:34N 34°06' W 125°42'1 1.2
2015-Jan-19 23:34N 34°07' W 125°42'1 1.3
2015-Jan-19 22:33N 34°08' W 125°42'1 1.3
2015-Jan-19 21:33N 34°09' W 125°42'1 1.2
2015-Jan-19 20:33N 34°11' W 125°42'1 1.0
2015-Jan-19 19:28N 34°12' W 125°43'1 0.8
2015-Jan-19 18:34N 34°12' W 125°43'0 0.3
2015-Jan-19 17:33N 34°13' W 125°43'  
Track history (hours):
 
Tides and Currents Weather Stations Pressure Air Temp Water Temp Dewpoint Dewpoint Depression Visibility Wind Speed Wind Dir Waves Ship Positions

Guenther Schulte

Last reported at 2015-Jan-27 18:33 UTC. Time now 2015-Jan-27 18:59 UTC.
Position N 37°43' W 122°20'.

Length 231 m; draft 9.2 m.

Type: Ship (hazmat cat C). MMSI: 477728800.

Date/timePositionNaut miles runAvg speedWind from/ knotsBaromVisibWave heightAir tempDewpointWater temp
2015-Jan-27 18:33N 37°43' W 122°20'0 0.0
2015-Jan-27 17:33N 37°43' W 122°20'0 0.0
2015-Jan-27 16:33N 37°43' W 122°20'0 0.0
2015-Jan-27 15:33N 37°43' W 122°20'0 0.1
2015-Jan-27 14:33N 37°43' W 122°20'0 0.2
2015-Jan-27 13:33N 37°43' W 122°20'0 0.1
2015-Jan-27 12:33N 37°43' W 122°20'0 0.0
2015-Jan-27 11:33N 37°43' W 122°20'0 0.0
2015-Jan-27 10:33N 37°43' W 122°20'0 0.0
2015-Jan-27 09:33N 37°43' W 122°20'0 0.0
2015-Jan-27 08:33N 37°43' W 122°20'0 0.2
2015-Jan-27 07:33N 37°43' W 122°20'0 0.1
2015-Jan-27 06:33N 37°43' W 122°20'0 0.0
2015-Jan-27 05:33N 37°43' W 122°20'0 0.0
2015-Jan-27 04:33N 37°43' W 122°20'0 0.0
2015-Jan-27 03:33N 37°43' W 122°20'0 0.1
2015-Jan-27 02:33N 37°43' W 122°20'0 0.2
2015-Jan-27 01:30N 37°43' W 122°20'0 0.0
2015-Jan-27 00:33N 37°43' W 122°20'0 0.0
2015-Jan-26 23:33N 37°43' W 122°20'0 0.0
2015-Jan-26 22:33N 37°43' W 122°20'0 0.0
2015-Jan-26 21:33N 37°43' W 122°20'0 0.0
2015-Jan-26 20:33N 37°43' W 122°20'0 0.2
2015-Jan-26 19:33N 37°43' W 122°20'0 0.1
2015-Jan-26 18:30N 37°43' W 122°20'0 0.0
2015-Jan-26 17:33N 37°43' W 122°20'0 0.0
2015-Jan-26 16:33N 37°43' W 122°20'0 0.0
2015-Jan-26 15:34N 37°43' W 122°20'8 8.0
2015-Jan-26 14:33N 37°49' W 122°27'1313.4
2015-Jan-26 13:33N 37°44' W 122°42'1111.2
2015-Jan-26 12:33N 37°37' W 122°54'1312.9
2015-Jan-26 11:33N 37°29' W 123°07'1111.3
2015-Jan-26 10:33N 37°23' W 123°19'1111.2
2015-Jan-26 09:33N 37°15' W 123°28'1111.2
2015-Jan-26 08:33N 37°06' W 123°37'1110.9
2015-Jan-26 07:33N 36°59' W 123°47'1111.0
2015-Jan-26 06:33N 36°50' W 123°56'1111.0
2015-Jan-26 05:31N 36°42' W 124°06'1310.9
2015-Jan-26 04:17N 36°32' W 124°17'5411.4
2015-Jan-25 23:33N 35°53' W 125°03'1212.2
2015-Jan-25 22:33N 35°43' W 125°13'1212.1
2015-Jan-25 21:33N 35°35' W 125°23'1312.3
2015-Jan-25 20:31N 35°25' W 125°33'5610.4
2015-Jan-25 15:12N 34°46' W 126°22'710.9
2015-Jan-25 14:33N 34°39' W 126°21'1311.8
2015-Jan-25 13:28N 34°27' W 126°24'1111.6
2015-Jan-25 12:31N 34°16' W 126°25'2311.7
2015-Jan-25 10:33N 33°53' W 126°28'1712.1
2015-Jan-25 09:11N 33°36' W 126°31'812.2
2015-Jan-25 08:33N 33°29' W 126°32'26 4.3
2015-Jan-25 02:33N 33°03' W 126°35'9 0.8
2015-Jan-24 15:22N 33°09' W 126°26'1 1.0
2015-Jan-24 14:33N 33°09' W 126°26'1 1.1
2015-Jan-24 13:25N 33°11' W 126°25'1 1.1
2015-Jan-24 12:28N 33°12' W 126°25'1 1.1
2015-Jan-24 11:33N 33°13' W 126°24'1 1.0
2015-Jan-24 10:33N 33°13' W 126°24'1 0.9
2015-Jan-24 09:33N 33°14' W 126°24'1 0.9
2015-Jan-24 08:33N 33°15' W 126°23'1 0.8
2015-Jan-24 07:33N 33°16' W 126°22'1 0.8
2015-Jan-24 06:33N 33°16' W 126°22'1 0.7
2015-Jan-24 05:33N 33°17' W 126°22'0 0.5
2015-Jan-24 04:33N 33°17' W 126°21'0 0.5
2015-Jan-24 03:33N 33°18' W 126°21'1 0.6
2015-Jan-24 02:33N 33°18' W 126°21'1 0.7
2015-Jan-24 01:33N 33°19' W 126°20'1 0.7
2015-Jan-24 00:33N 33°19' W 126°20'1 1.0
2015-Jan-23 23:33N 33°20' W 126°19'1 1.1
2015-Jan-23 22:33N 33°21' W 126°18'1 1.0
2015-Jan-23 21:33N 33°22' W 126°18'1 0.8
2015-Jan-23 20:33N 33°23' W 126°17'1 0.9
2015-Jan-23 19:33N 33°23' W 126°17'2 0.9
2015-Jan-23 17:24N 33°25' W 126°15'3 1.0
2015-Jan-23 14:33N 33°27' W 126°13'1 1.1
2015-Jan-23 13:19N 33°29' W 126°13'1 1.1
2015-Jan-23 12:33N 33°29' W 126°13'1 0.9
2015-Jan-23 11:33N 33°30' W 126°13'1 0.6
2015-Jan-23 10:33N 33°31' W 126°14'0 0.4
2015-Jan-23 09:33N 33°31' W 126°14'0 0.3
2015-Jan-23 08:33N 33°31' W 126°14'0 0.1
2015-Jan-23 07:33N 33°32' W 126°14'0 0.1
2015-Jan-23 06:34N 33°32' W 126°14'0 0.4
2015-Jan-23 05:33N 33°32' W 126°14'1 0.6
2015-Jan-23 04:33N 33°32' W 126°13'1 0.8
2015-Jan-23 03:32N 33°33' W 126°12'1 0.9
2015-Jan-23 02:29N 33°33' W 126°12'1 0.9
2015-Jan-23 01:33N 33°34' W 126°11'1 1.0
2015-Jan-23 00:33N 33°35' W 126°10'1 0.8
2015-Jan-22 23:33N 33°35' W 126°10'1 0.9
2015-Jan-22 22:33N 33°36' W 126°09'1 0.7
2015-Jan-22 21:33N 33°37' W 126°09'1 0.7
2015-Jan-22 20:33N 33°38' W 126°09'1 0.7
2015-Jan-22 19:33N 33°38' W 126°08'1 0.8
2015-Jan-22 18:29N 33°39' W 126°09'1 0.6
2015-Jan-22 17:33N 33°39' W 126°09'1 0.5
2015-Jan-22 15:33N 33°40' W 126°09'0 0.5
2015-Jan-22 14:33N 33°41' W 126°09'1 0.7
2015-Jan-22 13:33N 33°42' W 126°09'1 0.7
2015-Jan-22 12:33N 33°42' W 126°09'1 0.8
2015-Jan-22 11:34N 33°43' W 126°09'1 0.9
2015-Jan-22 10:33N 33°44' W 126°09'1 1.0
2015-Jan-22 09:29N 33°45' W 126°09'1 0.9
2015-Jan-22 08:33N 33°46' W 126°09'1 0.7
2015-Jan-22 07:33N 33°46' W 126°09'1 0.6
2015-Jan-22 06:33N 33°47' W 126°08'1 0.8
2015-Jan-22 05:33N 33°48' W 126°08'1 0.9
2015-Jan-22 04:32N 33°48' W 126°08'1 0.9
2015-Jan-22 03:25N 33°49' W 126°07'1 1.0
2015-Jan-22 02:32N 33°50' W 126°07'1 1.1
2015-Jan-22 01:33N 33°51' W 126°06'1 1.2
2015-Jan-22 00:34N 33°53' W 126°06'1 1.2
2015-Jan-21 23:34N 33°54' W 126°06'1 1.1
2015-Jan-21 22:50N 33°55' W 126°06'0 0.9
2015-Jan-21 22:46N 33°55' W 126°06'0 1.1
2015-Jan-21 22:34N 33°55' W 126°05'1 1.1
2015-Jan-21 21:33N 33°56' W 126°05'3 1.4
2015-Jan-21 19:33N 33°58' W 126°04'6 1.3
2015-Jan-21 15:24N 34°03' W 126°01'1 1.3
2015-Jan-21 14:32N 34°05' W 126°00'2 1.3
2015-Jan-21 13:24N 34°06' W 125°60'1 1.4
2015-Jan-21 12:34N 34°07' W 125°60'2 1.6
2015-Jan-21 11:33N 34°09' W 125°60'2 1.7
2015-Jan-21 10:34N 34°10' W 125°59'2 1.6
2015-Jan-21 09:34N 34°12' W 125°59'2 1.6
2015-Jan-21 08:34N 34°13' W 125°58'13 1.6
2015-Jan-21 00:30N 34°26' W 125°56'2 1.7
2015-Jan-20 23:33N 34°27' W 125°56'2 1.6
2015-Jan-20 22:29N 34°29' W 125°56'18 4.3
2015-Jan-20 18:11N 34°11' W 125°50'20 3.4
2015-Jan-20 12:10N 33°52' W 125°42'1 1.3
2015-Jan-20 11:34N 33°53' W 125°42'1 1.3
2015-Jan-20 10:31N 33°54' W 125°43'2 1.4
2015-Jan-20 09:14N 33°56' W 125°43'1 1.3
2015-Jan-20 08:15N 33°57' W 125°43'1 1.1
2015-Jan-20 07:33N 33°58' W 125°43'1 1.0
2015-Jan-20 06:33N 33°59' W 125°43'1 0.9
2015-Jan-20 05:15N 34°00' W 125°43'1 1.1
2015-Jan-20 04:15N 34°01' W 125°43'1 1.1
2015-Jan-20 03:33N 34°02' W 125°43'1 1.2
2015-Jan-20 02:34N 34°03' W 125°43'1 1.2
2015-Jan-20 01:33N 34°04' W 125°43'1 1.3
2015-Jan-20 00:34N 34°06' W 125°42'1 1.2
2015-Jan-19 23:34N 34°07' W 125°42'1 1.3
2015-Jan-19 22:33N 34°08' W 125°42'1 1.3
2015-Jan-19 21:33N 34°09' W 125°42'1 1.2
2015-Jan-19 20:33N 34°11' W 125°42'1 1.0
2015-Jan-19 19:28N 34°12' W 125°43'1 0.8
2015-Jan-19 18:34N 34°12' W 125°43'0 0.3
2015-Jan-19 17:33N 34°13' W 125°43'  

Dump ship's entire track history